Aérodrome :
LOGIN :

S'inscrire | Disclaimer

   EN    FR    IT 

 










Légende :    VFR   VFR Marginal   IFR   IFR Intensif   IFR Très Intensif
Visi : 
Plafond : 
>= 8 km
>= 3000ft
5 à 8 km
1000 à 3000 ft
1500m à 5 km
500 à 1000 ft
800 à 1500m
200 à 500 ft
< 800m
< 200 ft
Symboles :   Orages  Brouillard  Fortes neiges  Fortes précipitations  Vent > 20 kt
SIGMETs :   Divers  Orages  Givrage  Turbulence  Onde Orograph.  Cendres Volcan.






- Altitude de l'aérodrome : 297 ft


EGVP - Middle Wallop

DERNIER METAR :
  • 301220Z 22012KT 9999 BKN007 BKN014 15/14 Q1016 NOSIG RMK GRN GRN

METARs EXPIRÉS :
  • 301208Z 22012KT 9999 BKN007 BKN014 15/14 Q1016 BECMG BKN006 RMK GRN BECMG YLO1
  • 301150Z 23011KT 3500 DZ BKN006 BKN014 15/14 Q1016 TEMPO 4000 -DZ RMK YLO1 TEMPO YLO1
  • 301135Z 22012KT 3800 -DZ BKN006 15/14 Q1016 TEMPO 3000 RMK YLO1 TEMPO YLO1
  • 301120Z 22012KT 9000 -DZ BKN007 15/14 Q1016 TEMPO 3000 DZ BKN006 RMK GRN TEMPO YLO1
  • 301110Z 22012KT 6000 -DZ BKN006 BKN009 15/14 Q1016 TEMPO 3000 DZ RMK YLO1 TEMPO YLO1
  • 301020Z 22012KT 7000 -DZ BKN007 BKN016 14/14 Q1016 TEMPO 3000 BKN006 RMK GRN TEMPO YLO1
  • 300950Z 22012G22KT 5000 -DZ FEW005 BKN006 14/14 Q1016 TEMPO 3000 RMK YLO1 TEMPO YLO1

TAF AMD TAF EGVP
Valide du 30 à 12h jusqu'au 30 à 21h UTC


301234Z 3012/3021 22014KT 9999 BKN007
PROB40
TEMPO 3012/3014 3000 DZ BKN006
BECMG 3014/3016 5000 -DZ BKN006
TEMPO 3014/3021 3000 RADZ BKN004
PROB40
TEMPO 3014/3018 2000 +RADZ
ATIS : +44 1980 674 142



MET'MAP, la Météo Aéronautique d'un coup d'oeil ! - Copyright ORBIFLY Décembre 2007 - Disclaimer

ORBIFLY MET'MAP TEAM :

Programmation & Développement : Alexandra Zaïnal
Sur une idée originale de : Baudouin d'Aumeries
Assistance à la programmation : Marc-Olivier Méhu
Soutien technique & logistique : Manuel Goepfert

Contact : metmap@orbifly.com




SOURCES & CREDITS :

   NOAA